Time;durP1;ratioP1;P1;durP2;ratioP2;P2;SDS_P1;SDS_P2;PMS_P1;PMS_P2;Temp;Humidity;BMP_temperature;BMP_pressure;BME280_temperature;BME280_humidity;BME280_pressure;Samples;Min_cycle;Max_cycle;Signal;HPM_P1;HPM_P2
2023/10/01 00:02:25;;;;;;;8.23;4.40;;;14.90;99.90;;;;;;5198942;28;20928;-50
2023/10/01 00:04:57;;;;;;;10.20;3.63;;;14.90;99.90;;;;;;5196061;28;20438;-49
2023/10/01 00:07:28;;;;;;;7.70;4.70;;;14.80;99.90;;;;;;5203417;28;20447;-48
2023/10/01 00:10:01;;;;;;;7.53;3.87;;;14.80;99.90;;;;;;5207397;28;20815;-48
2023/10/01 00:12:33;;;;;;;8.30;5.13;;;14.80;99.90;;;;;;5203128;28;20572;-48
2023/10/01 00:15:05;;;;;;;7.93;3.70;;;14.80;99.90;;;;;;5198179;28;20566;-47
2023/10/01 00:17:37;;;;;;;4.53;3.53;;;14.80;99.90;;;;;;5195232;28;20506;-48
2023/10/01 00:20:18;;;;;;;5.13;3.23;;;14.80;99.90;;;;;;5198325;28;20453;-49
2023/10/01 00:22:51;;;;;;;4.83;3.47;;;14.80;99.90;;;;;;5194770;28;20530;-48
2023/10/01 00:25:23;;;;;;;5.57;3.77;;;14.80;99.90;;;;;;5202686;28;20437;-48
2023/10/01 00:27:55;;;;;;;14.63;3.50;;;14.80;99.90;;;;;;5184368;28;20445;-49
2023/10/01 00:30:33;;;;;;;7.87;4.20;;;14.80;99.90;;;;;;5196741;28;20467;-49
2023/10/01 00:33:06;;;;;;;4.40;3.73;;;14.80;99.90;;;;;;5201365;28;20926;-49
2023/10/01 00:35:40;;;;;;;6.70;4.20;;;14.80;99.90;;;;;;5197567;28;20439;-49
2023/10/01 00:38:11;;;;;;;13.77;5.57;;;14.80;99.90;;;;;;5200957;28;20449;-49
2023/10/01 00:40:42;;;;;;;4.97;3.40;;;14.80;99.90;;;;;;5200028;28;20464;-48
2023/10/01 00:43:14;;;;;;;12.33;4.73;;;14.80;99.90;;;;;;5212088;28;20322;-49
2023/10/01 00:45:45;;;;;;;7.10;3.53;;;14.90;99.90;;;;;;5197990;28;20435;-48
2023/10/01 00:48:18;;;;;;;9.30;4.53;;;14.80;99.90;;;;;;5199157;28;20432;-48
2023/10/01 00:50:54;;;;;;;4.83;3.60;;;14.80;99.90;;;;;;5195140;28;21937;-49
2023/10/01 00:53:25;;;;;;;6.50;4.30;;;14.80;99.90;;;;;;5197309;28;20425;-49
2023/10/01 00:55:59;;;;;;;7.70;4.13;;;14.80;99.90;;;;;;5196894;28;20777;-48
2023/10/01 00:58:29;;;;;;;7.13;3.13;;;14.80;99.90;;;;;;5219208;28;20267;-49
2023/10/01 01:01:02;;;;;;;3.67;2.60;;;14.80;99.90;;;;;;5199928;28;20529;-49
2023/10/01 01:03:34;;;;;;;3.77;2.90;;;14.80;99.90;;;;;;5198989;28;20210;-49
2023/10/01 01:06:17;;;;;;;4.60;2.73;;;14.80;99.90;;;;;;5193808;28;20996;-48
2023/10/01 01:08:49;;;;;;;11.70;3.80;;;14.80;99.90;;;;;;5196621;28;20462;-48
2023/10/01 01:11:26;;;;;;;6.97;3.40;;;14.80;99.90;;;;;;5199692;28;20549;-49
2023/10/01 01:13:57;;;;;;;6.97;2.80;;;14.80;99.90;;;;;;5192554;28;20903;-49
2023/10/01 01:16:28;;;;;;;3.70;3.13;;;14.90;99.90;;;;;;5200030;28;20469;-48
2023/10/01 01:19:00;;;;;;;6.03;2.80;;;14.90;99.90;;;;;;5193800;28;20825;-49
2023/10/01 01:21:31;;;;;;;5.37;3.23;;;14.90;99.90;;;;;;5193053;28;20453;-49
2023/10/01 01:24:03;;;;;;;5.13;2.67;;;14.90;99.90;;;;;;5202992;28;20427;-49
2023/10/01 01:26:37;;;;;;;4.27;3.00;;;15.00;99.90;;;;;;5197839;28;20446;-49
2023/10/01 01:29:18;;;;;;;3.37;3.00;;;15.00;99.90;;;;;;5194962;28;20963;-50
2023/10/01 01:32:02;;;;;;;8.37;3.03;;;14.90;99.90;;;;;;5195708;28;20466;-48
2023/10/01 01:34:37;;;;;;;7.97;3.23;;;14.90;99.90;;;;;;5202500;28;20422;-49
2023/10/01 01:37:08;;;;;;;6.67;3.83;;;14.90;99.90;;;;;;5199017;28;20453;-48
2023/10/01 01:39:48;;;;;;;6.17;3.00;;;14.80;99.90;;;;;;5197831;28;21142;-48
2023/10/01 01:42:21;;;;;;;3.27;2.80;;;14.80;99.90;;;;;;5206960;28;20473;-49
2023/10/01 01:47:42;;;;;;;6.00;2.80;;;14.90;99.90;;;;;;5202569;28;20487;-48
2023/10/01 01:50:21;;;;;;;5.90;2.20;;;14.90;99.90;;;;;;5197795;28;20454;-49
2023/10/01 01:52:52;;;;;;;4.23;2.90;;;14.90;99.90;;;;;;5198838;28;20463;-49
2023/10/01 01:55:28;;;;;;;5.17;2.90;;;14.90;99.90;;;;;;5194181;28;20434;-47
2023/10/01 01:58:10;;;;;;;5.70;3.57;;;14.90;99.90;;;;;;5196650;28;20918;-49
2023/10/01 02:01:01;;;;;;;6.47;3.30;;;15.00;99.90;;;;;;5186858;28;20469;-48
2023/10/01 02:03:32;;;;;;;13.57;3.53;;;15.10;99.90;;;;;;5197959;28;20434;-48
2023/10/01 02:06:09;;;;;;;5.93;3.70;;;15.10;99.90;;;;;;5197922;28;20434;-48
2023/10/01 02:08:49;;;;;;;6.23;4.00;;;15.10;99.90;;;;;;5219280;28;20976;-48
2023/10/01 02:11:22;;;;;;;10.80;4.30;;;15.00;99.90;;;;;;5191273;28;20466;-49
2023/10/01 02:13:57;;;;;;;4.57;2.83;;;15.00;99.90;;;;;;5204744;28;20521;-49
2023/10/01 02:19:14;;;;;;;7.33;3.50;;;15.00;99.90;;;;;;5199680;28;20806;-49
2023/10/01 02:22:00;;;;;;;15.50;3.93;;;14.90;99.90;;;;;;5200246;28;20184;-48
2023/10/01 02:25:16;;;;;;;5.70;3.07;;;14.90;99.90;;;;;;5205372;28;20499;-49
2023/10/01 02:27:26;;;;;;;4.17;3.27;;;14.90;99.90;;;;;;5189881;28;21104;-49
2023/10/01 02:30:14;;;;;;;4.57;3.30;;;14.90;99.90;;;;;;5192977;28;20450;-47
2023/10/01 02:35:34;;;;;;;8.43;3.77;;;14.90;99.90;;;;;;5200631;28;20884;-48
2023/10/01 02:38:06;;;;;;;8.70;3.60;;;14.90;99.90;;;;;;5199296;28;20451;-49
2023/10/01 02:40:40;;;;;;;9.90;3.77;;;14.90;99.90;;;;;;5201001;28;20454;-48
2023/10/01 02:43:14;;;;;;;5.07;3.50;;;14.90;99.90;;;;;;5200484;28;20472;-49
2023/10/01 02:45:50;;;;;;;8.20;3.07;;;14.90;99.90;;;;;;5194958;28;20533;-49
2023/10/01 02:48:22;;;;;;;6.80;4.00;;;14.90;99.90;;;;;;5201622;28;20425;-48
2023/10/01 02:50:54;;;;;;;6.30;3.67;;;14.90;99.90;;;;;;5202605;28;20462;-48
2023/10/01 02:53:25;;;;;;;6.10;3.93;;;15.00;99.90;;;;;;5208560;28;21025;-48
2023/10/01 02:56:02;;;;;;;10.10;3.80;;;14.90;99.90;;;;;;5197555;28;20545;-48
2023/10/01 02:58:33;;;;;;;9.93;4.43;;;14.80;99.90;;;;;;5203022;28;20183;-49
2023/10/01 03:01:08;;;;;;;4.97;3.77;;;14.80;99.90;;;;;;5195722;28;20500;-49
2023/10/01 03:03:39;;;;;;;12.33;3.33;;;14.70;99.90;;;;;;5196676;28;20438;-48
2023/10/01 03:06:10;;;;;;;6.43;3.70;;;14.70;99.90;;;;;;5198762;28;20492;-49
2023/10/01 03:08:41;;;;;;;12.70;4.17;;;14.70;99.90;;;;;;5195619;28;20446;-48
2023/10/01 03:11:12;;;;;;;5.53;3.37;;;14.70;99.90;;;;;;5199465;28;20294;-50
2023/10/01 03:13:46;;;;;;;7.80;3.57;;;14.70;99.90;;;;;;5200775;28;20528;-48
2023/10/01 03:22:15;;;;;;;7.23;3.50;;;14.70;99.90;;;;;;5191945;28;21517;-49
2023/10/01 03:24:46;;;;;;;6.93;3.40;;;14.70;99.90;;;;;;5196803;28;20443;-48
2023/10/01 03:27:24;;;;;;;7.20;3.20;;;14.70;99.90;;;;;;5198611;28;20450;-47
2023/10/01 03:30:01;;;;;;;11.23;4.00;;;14.70;99.90;;;;;;5199770;28;20455;-49
2023/10/01 03:32:32;;;;;;;7.57;3.97;;;14.70;99.90;;;;;;5202432;28;20478;-49
2023/10/01 03:35:06;;;;;;;6.07;3.33;;;14.70;99.90;;;;;;5204172;28;20452;-48
2023/10/01 03:37:40;;;;;;;7.07;3.57;;;14.70;99.90;;;;;;5205778;28;20465;-50
2023/10/01 03:40:21;;;;;;;7.77;4.00;;;14.70;99.90;;;;;;5200489;28;20497;-48
2023/10/01 03:42:52;;;;;;;3.60;3.30;;;14.70;99.90;;;;;;5197578;28;20492;-49
2023/10/01 03:48:06;;;;;;;7.80;3.30;;;14.70;99.90;;;;;;5195480;28;20454;-48
2023/10/01 03:50:45;;;;;;;4.10;2.83;;;14.70;99.90;;;;;;5197207;28;20474;-50
2023/10/01 03:53:18;;;;;;;6.67;3.77;;;14.70;99.90;;;;;;5198771;28;20427;-49
2023/10/01 03:55:54;;;;;;;5.23;3.80;;;14.70;99.90;;;;;;5196701;28;20420;-48
2023/10/01 03:58:26;;;;;;;5.27;2.77;;;14.70;99.90;;;;;;5201720;28;20451;-48
2023/10/01 04:01:09;;;;;;;10.67;3.73;;;14.70;99.90;;;;;;5200944;28;20442;-49
2023/10/01 04:03:42;;;;;;;7.00;4.10;;;14.60;99.90;;;;;;5195878;28;20480;-49
2023/10/01 04:06:13;;;;;;;8.50;3.00;;;14.60;99.90;;;;;;5204530;28;20434;-49
2023/10/01 04:08:44;;;;;;;3.03;2.43;;;14.60;99.90;;;;;;5195024;28;20581;-49
2023/10/01 04:11:15;;;;;;;5.80;2.97;;;14.60;99.90;;;;;;5195945;28;20294;-49
2023/10/01 04:14:07;;;;;;;7.47;3.13;;;14.50;99.90;;;;;;5196889;28;20538;-49
2023/10/01 04:16:42;;;;;;;5.43;3.80;;;14.60;99.90;;;;;;5195185;28;20173;-49
2023/10/01 04:19:18;;;;;;;3.60;3.03;;;14.60;99.90;;;;;;5205667;28;20863;-48
2023/10/01 04:21:50;;;;;;;6.07;3.80;;;14.50;99.90;;;;;;5203805;28;20493;-48
2023/10/01 04:24:22;;;;;;;3.67;3.37;;;14.50;99.90;;;;;;5195966;28;20803;-48
2023/10/01 04:26:54;;;;;;;8.20;4.20;;;14.40;99.90;;;;;;5205452;28;20931;-49
2023/10/01 04:29:44;;;;;;;4.67;3.37;;;14.40;99.90;;;;;;5203273;28;20973;-49
2023/10/01 04:32:16;;;;;;;6.30;2.63;;;14.40;99.90;;;;;;5197982;28;20454;-48
2023/10/01 04:34:49;;;;;;;6.30;3.30;;;14.40;99.90;;;;;;5197998;28;20830;-48
2023/10/01 04:37:36;;;;;;;3.67;2.90;;;14.50;99.90;;;;;;5195614;28;20422;-48
2023/10/01 04:43:08;;;;;;;6.03;3.30;;;14.50;99.90;;;;;;5202648;28;20522;-49
2023/10/01 04:45:40;;;;;;;5.50;3.93;;;14.50;99.90;;;;;;5198508;28;20430;-48
2023/10/01 04:48:15;;;;;;;9.23;3.40;;;14.60;99.90;;;;;;5197065;28;20999;-48
2023/10/01 04:50:47;;;;;;;5.70;3.17;;;14.60;99.90;;;;;;5197762;28;20549;-49
2023/10/01 04:53:19;;;;;;;4.03;3.63;;;14.60;99.90;;;;;;5201721;28;20490;-49
2023/10/01 04:56:00;;;;;;;8.40;3.93;;;14.60;99.90;;;;;;5191878;28;20426;-49
2023/10/01 04:58:32;;;;;;;5.60;3.33;;;14.60;99.90;;;;;;5210306;28;20443;-49
2023/10/01 05:01:11;;;;;;;9.07;3.57;;;14.60;99.90;;;;;;5197920;28;20456;-48
2023/10/01 05:03:44;;;;;;;6.83;3.47;;;14.60;99.90;;;;;;5210177;28;20492;-49
2023/10/01 05:06:20;;;;;;;6.33;3.30;;;14.60;99.90;;;;;;5196469;28;20457;-49
2023/10/01 05:08:55;;;;;;;6.70;3.60;;;14.60;99.90;;;;;;5177221;28;20450;-48
2023/10/01 05:11:31;;;;;;;4.53;2.97;;;14.70;99.90;;;;;;5198966;28;20469;-48
2023/10/01 05:14:04;;;;;;;13.40;4.50;;;14.70;99.90;;;;;;5193162;28;20856;-49
2023/10/01 05:16:38;;;;;;;5.10;3.67;;;14.70;99.90;;;;;;5196535;28;20510;-49
2023/10/01 05:19:13;;;;;;;8.20;3.90;;;14.70;99.90;;;;;;5195001;28;20462;-48
2023/10/01 05:21:49;;;;;;;4.50;3.00;;;14.70;99.90;;;;;;5176996;28;20469;-49
2023/10/01 05:24:35;;;;;;;5.27;3.80;;;14.70;99.90;;;;;;5195245;28;20540;-49
2023/10/01 05:27:18;;;;;;;4.53;3.57;;;14.70;99.90;;;;;;5190967;28;20604;-49
2023/10/01 05:29:49;;;;;;;5.93;3.00;;;14.80;99.90;;;;;;5197253;28;21503;-49
2023/10/01 05:32:19;;;;;;;5.57;3.40;;;14.80;99.90;;;;;;5193141;28;20470;-49
2023/10/01 05:34:50;;;;;;;7.60;3.23;;;14.80;99.90;;;;;;5193072;28;20565;-49
2023/10/01 05:37:24;;;;;;;3.90;2.80;;;14.90;99.90;;;;;;5192545;28;21715;-49
2023/10/01 05:39:55;;;;;;;7.83;3.80;;;14.90;99.90;;;;;;5190437;28;20193;-50
2023/10/01 05:42:28;;;;;;;9.20;3.90;;;14.90;99.90;;;;;;5192009;28;20442;-49
2023/10/01 05:44:59;;;;;;;8.60;3.53;;;15.00;99.90;;;;;;5192962;28;21305;-49
2023/10/01 05:47:49;;;;;;;6.47;3.00;;;15.00;99.90;;;;;;5178141;28;20435;-51
2023/10/01 05:50:22;;;;;;;9.47;3.73;;;15.10;99.90;;;;;;5193921;28;20934;-49
2023/10/01 05:52:55;;;;;;;7.27;3.00;;;15.20;99.90;;;;;;5193859;28;21506;-50
2023/10/01 05:55:26;;;;;;;7.10;3.87;;;15.30;99.90;;;;;;5195610;28;20438;-49
2023/10/01 05:58:12;;;;;;;5.83;3.07;;;15.30;99.90;;;;;;5195619;28;20411;-49
2023/10/01 06:00:45;;;;;;;9.13;3.43;;;15.40;99.90;;;;;;5197651;28;20272;-48
2023/10/01 06:03:17;;;;;;;5.43;3.37;;;15.50;99.90;;;;;;5194155;28;20438;-49
2023/10/01 06:05:50;;;;;;;6.23;3.47;;;15.60;99.90;;;;;;5198008;28;20435;-49
2023/10/01 06:08:32;;;;;;;4.77;3.20;;;15.80;99.90;;;;;;5192839;28;20430;-49
2023/10/01 06:11:06;;;;;;;8.00;3.13;;;15.90;99.90;;;;;;5192511;28;20434;-50
2023/10/01 06:13:38;;;;;;;7.60;3.83;;;16.10;99.90;;;;;;5201362;28;20461;-48
2023/10/01 06:16:13;;;;;;;5.73;3.00;;;16.30;99.90;;;;;;5192253;28;20966;-49
2023/10/01 06:18:51;;;;;;;7.07;3.40;;;16.40;99.90;;;;;;5197506;28;20484;-49
2023/10/01 06:21:27;;;;;;;10.00;3.47;;;16.50;99.90;;;;;;5191708;28;20783;-49
2023/10/01 06:24:04;;;;;;;3.33;3.00;;;16.50;99.90;;;;;;5194138;28;20449;-49
2023/10/01 06:26:45;;;;;;;12.43;4.20;;;16.50;99.90;;;;;;5184315;28;20998;-50
2023/10/01 06:29:16;;;;;;;8.83;3.40;;;16.60;99.90;;;;;;5203328;28;21958;-49
2023/10/01 06:32:02;;;;;;;9.70;4.60;;;16.70;99.90;;;;;;5200669;28;20560;-48
2023/10/01 06:34:33;;;;;;;8.53;3.40;;;16.90;99.90;;;;;;5203420;28;20813;-48
2023/10/01 06:37:05;;;;;;;5.73;3.70;;;17.10;99.90;;;;;;5204018;28;20434;-48
2023/10/01 06:39:40;;;;;;;6.53;3.43;;;17.30;99.90;;;;;;5203958;28;20203;-48
2023/10/01 06:42:20;;;;;;;3.80;2.90;;;17.50;99.90;;;;;;5198635;28;20461;-48
2023/10/01 06:44:52;;;;;;;5.07;3.23;;;17.60;99.90;;;;;;5201920;28;20964;-48
2023/10/01 06:47:25;;;;;;;2.90;2.70;;;17.80;99.90;;;;;;5201896;28;22171;-48
2023/10/01 06:52:41;;;;;;;10.77;3.67;;;18.20;99.90;;;;;;5193490;28;20511;-50
2023/10/01 06:55:25;;;;;;;4.93;3.40;;;18.60;99.90;;;;;;5197690;28;20426;-48
2023/10/01 06:57:56;;;;;;;5.73;2.90;;;18.80;99.90;;;;;;5199190;28;20826;-49
2023/10/01 07:00:32;;;;;;;6.50;2.53;;;18.90;99.90;;;;;;5199681;28;20466;-48
2023/10/01 07:03:19;;;;;;;8.93;3.50;;;19.00;99.90;;;;;;5195699;28;20556;-49
2023/10/01 07:05:51;;;;;;;3.90;3.17;;;19.00;99.90;;;;;;5201069;28;20445;-49
2023/10/01 07:08:37;;;;;;;3.50;3.10;;;18.90;99.90;;;;;;5198546;28;20466;-50
2023/10/01 07:11:18;;;;;;;5.30;2.80;;;18.70;99.90;;;;;;5196586;28;20433;-48
2023/10/01 07:13:52;;;;;;;4.27;2.90;;;18.80;99.90;;;;;;5184793;28;20418;-49
2023/10/01 07:16:35;;;;;;;8.90;3.10;;;19.80;99.50;;;;;;5186912;28;20481;-49
2023/10/01 07:19:11;;;;;;;8.53;2.77;;;20.70;97.80;;;;;;5194885;28;20443;-49
2023/10/01 07:21:45;;;;;;;7.70;3.40;;;21.50;95.60;;;;;;5198919;28;21011;-49
2023/10/01 07:24:15;;;;;;;5.30;2.87;;;23.10;91.80;;;;;;5200836;28;20461;-49
2023/10/01 07:26:48;;;;;;;5.53;2.90;;;24.20;82.50;;;;;;5202067;28;20852;-50
2023/10/01 07:29:20;;;;;;;3.67;3.27;;;24.60;75.90;;;;;;5197318;28;20235;-50
2023/10/01 07:31:51;;;;;;;3.10;2.80;;;24.30;72.60;;;;;;5198345;28;20454;-49
2023/10/01 07:34:22;;;;;;;11.20;2.90;;;24.00;71.40;;;;;;5196921;28;20441;-49
2023/10/01 07:36:54;;;;;;;3.20;2.90;;;23.80;71.60;;;;;;5181585;28;20532;-49
2023/10/01 07:39:25;;;;;;;3.40;3.03;;;23.60;71.80;;;;;;5200332;28;20204;-48
2023/10/01 07:41:59;;;;;;;4.20;2.93;;;23.10;71.10;;;;;;5198806;28;20457;-49
2023/10/01 07:44:30;;;;;;;4.00;3.00;;;23.00;72.00;;;;;;5199430;28;20815;-53
2023/10/01 07:47:06;;;;;;;7.70;2.80;;;22.30;73.00;;;;;;5199024;28;20449;-49
2023/10/01 07:49:50;;;;;;;5.53;2.97;;;21.80;75.10;;;;;;5196677;28;20507;-50
2023/10/01 07:52:21;;;;;;;5.10;3.83;;;21.60;75.50;;;;;;5193834;28;20459;-49
2023/10/01 07:54:51;;;;;;;5.77;3.33;;;21.30;76.90;;;;;;5198491;28;20446;-48
2023/10/01 07:57:28;;;;;;;5.37;3.10;;;21.10;76.90;;;;;;5195426;28;20184;-49
2023/10/01 08:00:00;;;;;;;6.07;3.27;;;21.00;76.80;;;;;;5195534;28;20203;-51
2023/10/01 08:03:27;;;;;;;4.40;2.40;;;21.20;77.70;;;;;;5195807;28;20446;-50
2023/10/01 08:05:21;;;;;;;4.90;3.33;;;21.40;76.70;;;;;;5194333;28;20466;-52
2023/10/01 08:07:52;;;;;;;4.63;2.70;;;21.60;75.00;;;;;;5192874;28;20809;-49
2023/10/01 08:10:29;;;;;;;5.30;3.10;;;21.50;75.00;;;;;;5195893;28;20216;-50
2023/10/01 08:13:05;;;;;;;4.87;2.63;;;21.30;74.90;;;;;;5194950;28;20461;-49
2023/10/01 08:15:39;;;;;;;4.23;2.90;;;21.10;75.40;;;;;;5192766;28;20529;-50
2023/10/01 08:20:59;;;;;;;3.73;2.97;;;20.60;77.10;;;;;;5195767;28;20445;-49
2023/10/01 08:23:33;;;;;;;6.10;3.43;;;20.70;78.50;;;;;;5191413;28;20853;-50
2023/10/01 08:28:57;;;;;;;7.07;3.60;;;20.50;78.60;;;;;;5194502;28;20575;-50
2023/10/01 08:34:27;;;;;;;7.13;3.03;;;20.50;78.80;;;;;;5197298;28;20428;-50
2023/10/01 08:37:06;;;;;;;7.90;3.87;;;20.50;79.10;;;;;;5198838;28;20444;-49
2023/10/01 08:39:47;;;;;;;12.30;3.87;;;20.40;79.50;;;;;;5192724;28;20512;-50
2023/10/01 08:42:18;;;;;;;6.87;2.83;;;20.40;79.80;;;;;;5191756;28;20442;-50
2023/10/01 08:44:50;;;;;;;5.10;2.73;;;20.30;80.60;;;;;;5193423;28;20443;-50
2023/10/01 08:47:31;;;;;;;11.27;3.00;;;20.30;81.20;;;;;;5196639;28;20192;-51
2023/10/01 08:52:57;;;;;;;8.63;3.20;;;20.60;81.40;;;;;;5196086;28;20975;-52
2023/10/01 08:55:39;;;;;;;6.27;3.50;;;20.60;80.90;;;;;;5201819;28;20423;-50
2023/10/01 09:00:53;;;;;;;3.83;2.90;;;20.80;81.10;;;;;;5193665;28;20557;-49
2023/10/01 09:03:34;;;;;;;6.27;2.80;;;20.70;80.50;;;;;;5191764;28;20442;-49
2023/10/01 09:06:08;;;;;;;7.63;3.67;;;20.70;81.00;;;;;;5192174;28;20435;-48
2023/10/01 09:08:45;;;;;;;4.37;3.13;;;20.50;81.00;;;;;;5196267;28;20453;-49
2023/10/01 09:11:17;;;;;;;6.30;3.23;;;20.40;81.40;;;;;;5196718;28;20462;-48
2023/10/01 09:13:58;;;;;;;7.03;3.23;;;20.10;81.90;;;;;;5199638;28;20649;-48
2023/10/01 09:16:32;;;;;;;3.90;3.60;;;20.00;82.70;;;;;;5196037;28;20950;-47
2023/10/01 09:19:03;;;;;;;4.73;3.10;;;20.10;82.90;;;;;;5197735;28;20531;-49
2023/10/01 09:21:40;;;;;;;5.57;3.27;;;20.20;83.20;;;;;;5202750;28;20438;-46
2023/10/01 09:24:34;;;;;;;9.83;3.30;;;20.10;82.80;;;;;;5197685;28;20190;-47
2023/10/01 09:27:09;;;;;;;7.70;3.33;;;20.10;82.90;;;;;;5178379;28;20443;-51
2023/10/01 09:29:46;;;;;;;5.47;3.13;;;20.00;83.30;;;;;;5194427;28;20445;-50
2023/10/01 09:32:19;;;;;;;6.50;3.10;;;20.10;84.50;;;;;;5199383;28;22003;-47
2023/10/01 09:34:57;;;;;;;4.20;3.30;;;20.40;83.70;;;;;;5191908;28;20446;-51
2023/10/01 09:37:33;;;;;;;5.53;3.30;;;20.50;83.20;;;;;;5200332;28;20453;-52
2023/10/01 09:43:02;;;;;;;10.20;3.37;;;20.70;82.60;;;;;;5193533;28;20425;-48
2023/10/01 09:45:38;;;;;;;8.40;3.03;;;20.90;82.20;;;;;;5196054;28;20437;-47
2023/10/01 09:48:09;;;;;;;5.73;3.47;;;21.10;81.80;;;;;;5194322;28;20711;-51
2023/10/01 09:50:42;;;;;;;9.30;4.57;;;21.10;81.00;;;;;;5191266;28;20458;-49
2023/10/01 09:53:22;;;;;;;10.30;3.77;;;21.20;80.80;;;;;;5194912;28;20458;-50
2023/10/01 09:55:57;;;;;;;7.33;3.37;;;21.30;81.10;;;;;;5208229;28;20438;-48
2023/10/01 09:58:29;;;;;;;4.63;3.40;;;21.40;80.40;;;;;;5194227;28;20438;-52
2023/10/01 10:01:01;;;;;;;7.00;4.43;;;21.70;79.30;;;;;;5195655;28;20976;-50
2023/10/01 10:03:38;;;;;;;8.10;4.53;;;21.50;78.30;;;;;;5197104;28;20470;-48
2023/10/01 10:06:10;;;;;;;8.23;4.77;;;21.40;78.70;;;;;;5190848;28;20969;-47
2023/10/01 10:08:41;;;;;;;11.23;3.90;;;21.20;79.00;;;;;;5197132;28;20434;-49
2023/10/01 10:11:24;;;;;;;9.67;4.57;;;21.10;78.70;;;;;;5196501;28;20423;-49
2023/10/01 10:13:58;;;;;;;6.57;3.83;;;21.00;78.80;;;;;;5184179;28;20199;-50
2023/10/01 10:16:32;;;;;;;7.20;4.00;;;20.90;79.20;;;;;;5185876;28;20439;-53
2023/10/01 10:19:13;;;;;;;17.57;5.00;;;20.80;79.60;;;;;;5188237;28;20472;-50
2023/10/01 10:24:36;;;;;;;8.87;5.33;;;20.90;80.40;;;;;;5193382;28;20430;-49
2023/10/01 10:27:09;;;;;;;11.87;6.33;;;21.10;79.70;;;;;;5193441;28;20523;-53
2023/10/01 10:30:06;;;;;;;12.80;4.90;;;21.10;78.30;;;;;;5190445;28;20455;-51
2023/10/01 10:32:44;;;;;;;6.87;3.80;;;20.90;78.10;;;;;;5193577;28;20469;-50
2023/10/01 10:35:15;;;;;;;4.17;3.77;;;20.60;78.70;;;;;;5197341;28;20442;-54
2023/10/01 10:37:55;;;;;;;8.50;4.00;;;20.40;79.70;;;;;;5198544;28;20424;-49
2023/10/01 10:40:27;;;;;;;6.10;4.03;;;20.40;80.50;;;;;;5197318;28;20210;-51
2023/10/01 10:43:02;;;;;;;4.37;3.53;;;20.30;80.90;;;;;;5212714;28;20434;-51
2023/10/01 10:45:43;;;;;;;6.23;4.10;;;20.30;81.10;;;;;;5195732;28;20529;-48
2023/10/01 10:48:21;;;;;;;4.10;3.40;;;20.40;81.50;;;;;;5196840;28;20545;-51
2023/10/01 10:50:54;;;;;;;13.87;7.47;;;20.50;82.20;;;;;;5193828;28;20429;-49
2023/10/01 10:53:40;;;;;;;9.50;4.57;;;20.60;82.10;;;;;;5178282;28;20469;-49
2023/10/01 10:56:14;;;;;;;24.97;14.93;;;20.60;82.30;;;;;;5202735;28;20463;-49
2023/10/01 10:58:45;;;;;;;7.47;5.67;;;20.80;81.70;;;;;;5193943;28;20786;-51
2023/10/01 11:01:15;;;;;;;8.70;5.50;;;21.00;80.40;;;;;;5198496;28;20432;-50
2023/10/01 11:03:57;;;;;;;7.50;4.20;;;21.10;80.00;;;;;;5201318;28;20237;-49
2023/10/01 11:06:39;;;;;;;10.67;4.33;;;21.40;80.00;;;;;;5204934;28;20171;-49
2023/10/01 11:09:27;;;;;;;12.10;6.50;;;21.60;79.20;;;;;;5194838;28;20455;-50
2023/10/01 11:12:19;;;;;;;9.00;5.10;;;21.60;77.90;;;;;;5198724;28;20474;-53
2023/10/01 11:15:19;;;;;;;6.43;3.93;;;21.60;77.00;;;;;;5196137;28;20954;-51
2023/10/01 11:17:47;;;;;;;43.87;19.50;;;21.40;77.00;;;;;;5191046;28;20457;-51
2023/10/01 11:20:24;;;;;;;21.53;11.57;;;21.40;77.00;;;;;;5197806;28;20826;-49
2023/10/01 11:22:54;;;;;;;11.27;7.30;;;21.20;76.90;;;;;;5203839;28;20194;-51
2023/10/01 11:25:25;;;;;;;8.00;4.50;;;21.30;76.90;;;;;;5195863;28;20449;-51
2023/10/01 11:28:05;;;;;;;10.00;5.53;;;21.30;76.60;;;;;;5201967;28;20175;-53
2023/10/01 11:30:43;;;;;;;11.37;5.13;;;21.40;76.70;;;;;;5201071;28;20458;-51
2023/10/01 11:33:29;;;;;;;6.00;4.30;;;21.30;75.50;;;;;;5195297;28;20482;-51
2023/10/01 11:36:06;;;;;;;46.43;22.10;;;21.30;74.90;;;;;;5194915;28;20462;-51
2023/10/01 11:38:47;;;;;;;18.13;9.10;;;21.10;74.70;;;;;;5200536;28;20426;-50
2023/10/01 11:41:38;;;;;;;8.37;4.70;;;21.00;76.10;;;;;;5199902;28;20564;-50
2023/10/01 11:44:24;;;;;;;7.40;4.03;;;21.30;76.00;;;;;;5197171;28;20447;-52
2023/10/01 11:46:58;;;;;;;5.90;3.70;;;21.50;75.30;;;;;;5206959;28;20476;-51
2023/10/01 11:49:37;;;;;;;8.37;4.33;;;21.70;75.00;;;;;;5200301;28;21083;-51
2023/10/01 11:52:25;;;;;;;8.80;3.67;;;21.80;74.70;;;;;;5197068;28;20463;-52
2023/10/01 11:54:56;;;;;;;8.33;4.23;;;22.00;73.60;;;;;;5198546;28;20834;-50
2023/10/01 11:57:31;;;;;;;10.97;4.80;;;22.40;72.30;;;;;;5209344;28;20439;-49
2023/10/01 12:00:03;;;;;;;10.70;3.50;;;22.80;70.30;;;;;;5192843;28;20666;-51
2023/10/01 12:02:43;;;;;;;12.20;4.60;;;22.90;69.90;;;;;;5196285;28;20426;-52
2023/10/01 12:05:16;;;;;;;4.33;3.70;;;23.00;69.40;;;;;;5201221;28;20993;-51
2023/10/01 12:07:46;;;;;;;8.10;4.87;;;22.90;68.50;;;;;;5198415;28;20447;-50
2023/10/01 12:10:34;;;;;;;9.10;4.20;;;22.90;68.50;;;;;;5198150;28;20466;-51
2023/10/01 12:13:08;;;;;;;21.43;9.20;;;22.90;68.20;;;;;;5202848;28;20212;-50
2023/10/01 12:15:51;;;;;;;4.53;3.93;;;22.70;68.00;;;;;;5199130;28;21036;-50
2023/10/01 12:18:34;;;;;;;7.43;4.80;;;22.50;68.80;;;;;;5201318;28;20814;-51
2023/10/01 12:21:24;;;;;;;4.47;3.70;;;22.10;68.70;;;;;;5197759;28;20949;-51
2023/10/01 12:23:55;;;;;;;5.13;3.93;;;22.10;69.60;;;;;;5193987;28;20451;-49
2023/10/01 12:29:12;;;;;;;6.07;3.83;;;22.00;69.70;;;;;;5196481;28;20285;-52
2023/10/01 12:31:48;;;;;;;6.73;3.40;;;22.10;69.30;;;;;;5199754;28;20239;-52
2023/10/01 12:34:23;;;;;;;4.53;3.40;;;22.20;69.60;;;;;;5206739;28;20446;-52
2023/10/01 12:36:57;;;;;;;7.23;3.93;;;22.20;68.80;;;;;;5197910;28;20847;-50
2023/10/01 12:39:28;;;;;;;36.53;17.23;;;22.10;68.70;;;;;;5200064;28;20978;-51
2023/10/01 12:42:04;;;;;;;9.50;4.13;;;22.20;67.90;;;;;;5181384;28;20450;-51
2023/10/01 12:44:36;;;;;;;8.57;3.97;;;22.10;67.50;;;;;;5198010;28;20183;-49
2023/10/01 12:47:07;;;;;;;6.50;4.60;;;22.00;67.90;;;;;;5196524;28;20434;-50
2023/10/01 12:49:38;;;;;;;6.50;3.70;;;21.90;68.30;;;;;;5202115;28;20508;-51
2023/10/01 12:52:14;;;;;;;41.60;20.53;;;21.80;68.80;;;;;;5212561;28;20207;-51
2023/10/01 12:54:44;;;;;;;12.93;6.37;;;21.60;68.60;;;;;;5197051;28;20175;-51
2023/10/01 12:57:22;;;;;;;5.43;3.70;;;21.20;69.80;;;;;;5197377;28;20488;-52
2023/10/01 13:02:45;;;;;;;11.23;4.00;;;20.90;71.10;;;;;;5201973;28;20481;-51
2023/10/01 13:05:16;;;;;;;8.00;4.30;;;20.80;71.60;;;;;;5198320;28;20592;-49
2023/10/01 13:07:52;;;;;;;44.20;15.43;;;20.90;71.60;;;;;;5193441;28;20493;-50
2023/10/01 13:10:37;;;;;;;9.40;6.50;;;21.00;70.30;;;;;;5200481;28;20594;-50
2023/10/01 13:13:08;;;;;;;4.10;3.60;;;21.00;70.50;;;;;;5196390;28;20519;-51
2023/10/01 13:15:42;;;;;;;5.60;3.80;;;21.00;70.30;;;;;;5197015;28;20437;-50
2023/10/01 13:18:18;;;;;;;9.40;3.83;;;21.00;69.90;;;;;;5197935;28;20426;-49
2023/10/01 13:23:31;;;;;;;15.00;3.47;;;20.60;70.20;;;;;;5200043;28;20444;-50
2023/10/01 13:26:15;;;;;;;7.33;3.50;;;20.60;71.10;;;;;;5193474;28;20450;-51
2023/10/01 13:28:46;;;;;;;7.23;2.80;;;20.50;70.80;;;;;;5196643;28;20548;-50
2023/10/01 13:34:09;;;;;;;6.57;2.67;;;20.80;71.10;;;;;;5197684;28;20426;-51
2023/10/01 14:10:26;;;;;;;9.80;4.70;;;21.50;70.30;;;;;;5195516;28;20821;-53
2023/10/01 14:12:57;;;;;;;10.30;4.17;;;21.50;71.40;;;;;;5192803;28;20467;-53
2023/10/01 14:15:30;;;;;;;8.10;5.40;;;21.50;70.50;;;;;;5194997;28;20194;-53
2023/10/01 14:18:08;;;;;;;3.23;2.93;;;21.40;71.00;;;;;;5195017;28;20503;-50
2023/10/01 14:20:43;;;;;;;6.90;3.90;;;21.20;70.90;;;;;;5193151;28;20896;-51
2023/10/01 14:23:39;;;;;;;9.70;3.47;;;21.10;71.10;;;;;;5195139;28;20439;-52
2023/10/01 14:26:10;;;;;;;19.90;9.80;;;21.10;71.60;;;;;;5195986;28;20438;-50
2023/10/01 14:28:48;;;;;;;15.07;7.97;;;21.00;71.70;;;;;;5197709;28;20438;-50
2023/10/01 14:32:10;;;;;;;41.77;15.33;;;21.10;71.00;;;;;;5196956;28;20199;-51
2023/10/01 14:34:10;;;;;;;14.03;8.50;;;21.00;70.70;;;;;;5183893;28;20569;-51
2023/10/01 14:36:41;;;;;;;21.87;12.20;;;21.00;70.60;;;;;;5194927;28;20992;-51
2023/10/01 14:39:13;;;;;;;9.10;4.47;;;20.80;69.70;;;;;;5194580;28;20290;-51
2023/10/01 14:41:45;;;;;;;9.20;4.40;;;20.80;69.80;;;;;;5198032;28;20188;-50
2023/10/01 14:44:24;;;;;;;54.63;22.90;;;20.70;69.80;;;;;;5192789;28;20451;-51
2023/10/01 14:46:57;;;;;;;11.70;5.20;;;20.60;70.00;;;;;;5206424;28;20439;-51
2023/10/01 14:49:28;;;;;;;16.23;8.67;;;20.50;70.70;;;;;;5198234;28;20454;-52
2023/10/01 14:52:00;;;;;;;8.60;5.33;;;20.60;71.20;;;;;;5199697;28;20465;-51
2023/10/01 14:54:36;;;;;;;5.57;3.43;;;20.50;71.50;;;;;;5202756;28;20180;-51
2023/10/01 14:57:07;;;;;;;3.57;3.27;;;20.40;72.40;;;;;;5214910;28;20441;-52